Time;durP1;ratioP1;P1;durP2;ratioP2;P2;SDS_P1;SDS_P2;PMS_P1;PMS_P2;Temp;Humidity;BMP_temperature;BMP_pressure;BME280_temperature;BME280_humidity;BME280_pressure;Samples;Min_cycle;Max_cycle;Signal;HPM_P1;HPM_P2
2022/10/01 00:01:33;;;;;;;15.10;9.82;;;;;;;15.27;69.80;99640.84;7579912;33;40740;-73
2022/10/01 00:06:04;;;;;;;15.18;8.45;;;;;;;14.95;71.13;99634.31;7590809;32;37627;-74
2022/10/01 00:10:21;;;;;;;15.05;8.90;;;;;;;15.63;68.78;99621.63;7579906;33;37202;-74
2022/10/01 00:14:37;;;;;;;13.05;8.30;;;;;;;15.63;68.55;99627.13;7579772;33;40188;-74
2022/10/01 00:18:54;;;;;;;15.07;8.10;;;;;;;15.40;69.33;99623.50;7577090;33;40826;-74
2022/10/01 00:23:14;;;;;;;13.75;8.00;;;;;;;15.61;68.94;99615.66;7579237;33;38713;-74
2022/10/01 00:27:30;;;;;;;13.68;7.12;;;;;;;15.83;67.98;99598.38;7579587;33;38183;-74
2022/10/01 00:31:46;;;;;;;14.90;7.78;;;;;;;15.68;68.39;99616.03;7579535;33;39365;-74
2022/10/01 00:36:04;;;;;;;14.35;7.45;;;;;;;15.63;68.62;99605.16;7579412;33;39846;-74
2022/10/01 00:40:21;;;;;;;13.45;8.32;;;;;;;15.75;68.28;99618.38;7560347;33;38700;-74
2022/10/01 00:44:37;;;;;;;12.82;7.82;;;;;;;15.20;70.35;99625.56;7553597;33;38205;-74
2022/10/01 00:48:58;;;;;;;12.60;7.97;;;;;;;15.21;70.56;99626.38;7554202;33;39166;-74
2022/10/01 00:53:15;;;;;;;13.73;7.87;;;;;;;15.36;70.22;99620.56;7553442;33;39955;-73
2022/10/01 00:57:32;;;;;;;12.35;8.43;;;;;;;15.27;70.62;99627.91;7574452;33;37704;-74
2022/10/01 01:01:48;;;;;;;14.50;8.25;;;;;;;15.45;69.75;99626.13;7578850;33;37201;-73
2022/10/01 01:06:06;;;;;;;10.57;7.03;;;;;;;15.00;71.76;99626.81;7577339;33;40136;-73
2022/10/01 01:10:28;;;;;;;10.68;6.70;;;;;;;15.38;70.31;99632.09;7575420;33;39897;-73
2022/10/01 01:15:11;;;;;;;12.40;6.60;;;;;;;15.60;69.56;99608.50;7575199;33;38035;-73
2022/10/01 01:19:30;;;;;;;7.83;5.10;;;;;;;15.64;69.04;99612.25;7575691;33;36818;-74
2022/10/01 01:24:04;;;;;;;10.05;4.95;;;;;;;15.81;68.39;99611.63;7578232;33;39635;-74
2022/10/01 01:28:30;;;;;;;6.43;4.18;;;;;;;15.57;69.21;99612.72;7578303;33;39988;-74
2022/10/01 01:32:53;;;;;;;6.10;3.70;;;;;;;15.85;68.49;99601.66;7589240;32;38704;-73
2022/10/01 01:37:14;;;;;;;7.53;4.53;;;;;;;15.85;68.54;99595.31;7591533;32;37200;-74
2022/10/01 01:41:34;;;;;;;7.65;4.95;;;;;;;15.66;69.17;99610.03;7575391;33;39298;-74
2022/10/01 01:45:53;;;;;;;10.45;5.43;;;;;;;15.71;69.14;99598.94;7558262;33;39915;-74
2022/10/01 01:50:12;;;;;;;9.25;4.95;;;;;;;15.58;69.42;99627.25;7554660;33;38672;-74
2022/10/01 01:54:29;;;;;;;7.75;5.15;;;;;;;15.55;69.62;99631.41;7554875;33;37050;-74
2022/10/01 01:58:45;;;;;;;5.75;4.53;;;;;;;15.56;69.62;99624.00;7556516;33;39419;-75
2022/10/01 02:03:02;;;;;;;6.68;4.60;;;;;;;15.51;69.80;99597.44;7555758;33;40513;-75
2022/10/01 02:07:21;;;;;;;7.53;4.18;;;;;;;15.49;69.87;99612.63;7555515;33;38738;-74
2022/10/01 02:11:47;;;;;;;5.97;4.20;;;;;;;15.28;70.67;99621.31;7555715;33;37357;-75
2022/10/01 02:16:17;;;;;;;11.12;4.93;;;;;;;15.32;70.23;99611.31;7554575;33;39375;-73
2022/10/01 02:20:44;;;;;;;8.10;4.78;;;;;;;15.47;69.79;99595.63;7555350;33;40164;-74
2022/10/01 02:25:04;;;;;;;7.60;4.72;;;;;;;15.18;70.77;99610.53;7569603;33;37818;-74
2022/10/01 02:29:21;;;;;;;8.80;5.22;;;;;;;15.50;69.47;99601.31;7591887;32;37851;-74
2022/10/01 02:33:38;;;;;;;10.48;5.47;;;;;;;15.52;69.75;99593.59;7591990;32;39096;-74
2022/10/01 02:37:55;;;;;;;8.77;5.22;;;;;;;15.68;69.08;99594.03;7591858;32;41036;-74
2022/10/01 02:42:13;;;;;;;9.95;6.05;;;;;;;15.67;69.03;99584.16;7580879;33;38427;-74
2022/10/01 02:46:32;;;;;;;9.23;5.70;;;;;;;15.65;69.30;99600.16;7590887;32;37104;-73
2022/10/01 02:50:51;;;;;;;10.80;6.30;;;;;;;15.51;69.89;99591.16;7576257;32;40202;-74
2022/10/01 02:55:13;;;;;;;12.57;6.15;;;;;;;15.59;69.70;99590.41;7555126;33;40914;-74
2022/10/01 02:59:29;;;;;;;10.40;6.27;;;;;;;15.20;71.44;99592.62;7582678;32;38420;-74
2022/10/01 03:03:45;;;;;;;10.45;6.55;;;;;;;15.50;70.22;99584.81;7575878;33;37704;-74
2022/10/01 03:08:01;;;;;;;10.13;6.22;;;;;;;15.65;69.72;99589.16;7568979;33;39138;-74
2022/10/01 03:12:18;;;;;;;11.55;5.72;;;;;;;15.53;70.30;99586.97;7568198;33;40091;-74
2022/10/01 03:16:34;;;;;;;8.70;5.57;;;;;;;15.76;69.28;99587.84;7580501;33;37961;-75
2022/10/01 03:20:50;;;;;;;10.70;5.97;;;;;;;15.65;69.66;99582.87;7529332;33;37116;-73
2022/10/01 03:25:06;;;;;;;10.50;6.53;;;;;;;15.45;70.44;99581.37;7529368;33;39415;-75
2022/10/01 03:29:23;;;;;;;16.02;6.87;;;;;;;15.73;69.64;99584.88;7529214;33;39879;-74
2022/10/01 03:33:40;;;;;;;11.65;6.43;;;;;;;15.51;70.49;99591.16;7518887;33;38720;-74
2022/10/01 03:37:56;;;;;;;10.48;6.53;;;;;;;15.64;70.00;99598.50;7503818;33;38179;-75
2022/10/01 03:42:12;;;;;;;10.38;6.90;;;;;;;15.73;69.65;99615.09;7503738;33;40204;-74
2022/10/01 03:46:28;;;;;;;41.22;9.98;;;;;;;15.69;69.76;99625.88;7503690;33;40018;-74
2022/10/01 03:50:58;;;;;;;12.25;7.93;;;;;;;15.65;69.98;99619.37;7503522;33;38852;-74
2022/10/01 03:55:14;;;;;;;16.37;7.10;;;;;;;15.69;70.06;99611.34;7503696;33;37353;-74
2022/10/01 03:59:30;;;;;;;12.45;6.87;;;;;;;15.45;70.79;99619.84;7503120;33;39313;-74
2022/10/01 04:03:48;;;;;;;10.15;6.90;;;;;;;15.54;70.80;99604.28;7525752;33;39848;-73
2022/10/01 04:08:04;;;;;;;9.25;5.60;;;;;;;15.95;69.20;99606.06;7528743;33;38754;-75
2022/10/01 04:12:20;;;;;;;11.57;6.15;;;;;;;15.94;69.33;99599.78;7539549;33;37212;-74
2022/10/01 04:16:36;;;;;;;9.82;5.85;;;;;;;15.86;69.86;99596.97;7528593;33;39490;-74
2022/10/01 04:20:52;;;;;;;10.13;5.65;;;;;;;15.90;69.37;99596.03;7579736;33;40266;-75
2022/10/01 04:25:09;;;;;;;10.60;6.35;;;;;;;15.96;69.28;99591.22;7579685;33;38693;-73
2022/10/01 04:29:25;;;;;;;9.02;5.60;;;;;;;15.94;69.15;99593.47;7579707;33;36864;-74
2022/10/01 04:33:41;;;;;;;9.23;5.32;;;;;;;16.08;68.92;99602.47;7568592;33;39332;-74
2022/10/01 04:38:06;;;;;;;10.73;5.07;;;;;;;16.00;69.22;99603.19;7570337;33;303398;-74
2022/10/01 04:42:22;;;;;;;10.88;6.55;;;;;;;15.96;69.49;99596.72;7579110;33;38681;-74
2022/10/01 04:46:38;;;;;;;10.82;6.37;;;;;;;15.87;69.37;99593.91;7579324;33;37866;-74
2022/10/01 04:50:54;;;;;;;11.63;6.80;;;;;;;15.82;69.80;99590.47;7579208;33;40108;-75
2022/10/01 04:55:11;;;;;;;10.23;6.87;;;;;;;15.92;69.47;99592.97;7579031;33;40057;-74
2022/10/01 04:59:27;;;;;;;13.23;7.37;;;;;;;15.94;69.60;99594.28;7578826;33;38414;-73
2022/10/01 05:03:43;;;;;;;13.32;7.35;;;;;;;15.86;69.81;99602.47;7554343;33;37956;-75
2022/10/01 05:08:00;;;;;;;13.02;8.25;;;;;;;15.95;69.44;99612.41;7553583;33;39562;-74
2022/10/01 05:12:16;;;;;;;14.13;8.75;;;;;;;16.00;69.50;99614.19;7557511;33;40904;-75
2022/10/01 05:16:38;;;;;;;12.93;8.70;;;;;;;16.03;69.42;99607.28;7556231;33;37991;-73
2022/10/01 05:20:54;;;;;;;12.85;8.77;;;;;;;15.99;69.63;99607.09;7556227;33;37101;-74
2022/10/01 05:25:10;;;;;;;12.98;7.85;;;;;;;15.64;70.92;99601.25;7570941;33;40065;-74
2022/10/01 05:29:26;;;;;;;11.00;7.30;;;;;;;15.90;70.11;99597.94;7570288;33;40749;-75
2022/10/01 05:33:42;;;;;;;12.70;7.20;;;;;;;15.73;70.48;99593.94;7575600;33;37427;-74
2022/10/01 05:38:01;;;;;;;10.65;6.37;;;;;;;15.67;71.08;99595.16;7581114;33;37860;-74
2022/10/01 05:42:17;;;;;;;14.32;7.00;;;;;;;15.71;71.03;99596.19;7581373;33;38364;-75
2022/10/01 05:46:34;;;;;;;11.48;6.85;;;;;;;15.53;71.47;99600.69;7581668;33;40515;-74
2022/10/01 05:50:50;;;;;;;10.85;6.00;;;;;;;15.67;71.06;99597.91;7581504;33;37957;-74
2022/10/01 05:55:07;;;;;;;10.32;6.28;;;;;;;15.69;71.21;99612.13;7578955;33;37111;-74
2022/10/01 05:59:23;;;;;;;10.65;6.00;;;;;;;15.65;71.41;99613.09;7579671;33;38287;-74
2022/10/01 06:03:49;;;;;;;8.57;5.20;;;;;;;15.81;70.93;99606.13;7555636;33;39622;-73
2022/10/01 06:08:07;;;;;;;7.10;4.70;;;;;;;15.57;71.30;99595.38;7562444;33;38425;-74
2022/10/01 06:12:24;;;;;;;9.43;4.10;;;;;;;15.81;71.16;99597.09;7554390;33;37118;-74
2022/10/01 06:16:40;;;;;;;4.75;3.25;;;;;;;15.42;73.27;99587.50;7555271;33;39395;-74
2022/10/01 06:20:58;;;;;;;5.25;2.72;;;;;;;15.53;73.37;99583.41;7555363;33;40025;-75
2022/10/01 06:25:14;;;;;;;4.57;2.50;;;;;;;15.98;72.13;99588.16;7555425;33;36838;-78
2022/10/01 06:29:30;;;;;;;4.55;2.80;;;;;;;15.91;73.26;99577.59;7555447;33;37271;-79
2022/10/01 06:33:46;;;;;;;5.85;3.42;;;;;;;16.28;74.23;99565.38;7555416;33;39247;-77
2022/10/01 06:38:03;;;;;;;6.53;4.25;;;;;;;16.60;72.15;99548.84;7555292;33;40732;-76
2022/10/01 06:42:19;;;;;;;7.70;4.37;;;;;;;16.44;71.37;99553.97;7555237;33;38550;-75
2022/10/01 06:46:36;;;;;;;10.73;5.45;;;;;;;16.56;69.99;99543.16;7555297;33;37571;-74
2022/10/01 06:50:54;;;;;;;10.77;6.12;;;;;;;16.62;69.76;99530.06;7555164;33;40158;-75
2022/10/01 06:55:10;;;;;;;13.82;5.20;;;;;;;16.74;69.21;99538.53;7555188;33;39293;-75
2022/10/01 06:59:32;;;;;;;11.80;6.60;;;;;;;16.43;70.92;99555.88;7555035;33;38003;-74
2022/10/01 07:03:49;;;;;;;11.02;6.75;;;;;;;16.73;69.40;99564.44;7555055;33;37150;-75
2022/10/01 07:08:06;;;;;;;14.18;7.15;;;;;;;16.81;69.17;99565.59;7554925;33;40127;-75
2022/10/01 07:12:22;;;;;;;9.35;6.68;;;;;;;16.93;68.67;99562.25;7554917;33;39967;-75
2022/10/01 07:16:38;;;;;;;14.38;8.85;;;;;;;16.89;68.95;99573.09;7554659;33;37943;-74
2022/10/01 07:20:56;;;;;;;13.57;8.93;;;;;;;16.66;69.11;99575.91;7554845;33;37091;-74
2022/10/01 07:25:13;;;;;;;13.95;8.60;;;;;;;16.61;69.49;99573.31;7554814;33;40836;-75
2022/10/01 07:29:30;;;;;;;14.40;8.77;;;;;;;16.88;68.92;99572.31;7554703;33;40547;-75
2022/10/01 07:33:47;;;;;;;11.65;7.80;;;;;;;16.78;69.01;99563.47;7554005;33;37847;-75
2022/10/01 07:38:06;;;;;;;13.13;8.68;;;;;;;16.80;68.58;99578.56;7554502;33;37397;-74
2022/10/01 07:42:22;;;;;;;11.52;7.18;;;;;;;16.39;70.08;99570.62;7554343;33;39398;-74
2022/10/01 07:46:39;;;;;;;11.35;7.20;;;;;;;16.59;69.68;99560.97;7554177;33;40808;-75
2022/10/01 07:50:56;;;;;;;11.23;6.93;;;;;;;16.83;69.25;99555.91;7554318;33;38050;-74
2022/10/01 07:55:13;;;;;;;11.10;7.07;;;;;;;17.06;68.60;99539.31;7554198;33;37402;-74
2022/10/01 07:59:30;;;;;;;11.57;7.12;;;;;;;16.99;69.06;99553.53;7553043;33;38998;-74
2022/10/01 08:03:48;;;;;;;12.20;6.97;;;;;;;16.86;69.88;99540.69;7553986;33;40142;-76
2022/10/01 08:08:07;;;;;;;11.25;7.20;;;;;;;16.84;70.47;99545.72;7553987;33;37689;-74
2022/10/01 08:12:29;;;;;;;10.82;6.93;;;;;;;16.99;69.76;99552.72;7554071;33;36837;-75
2022/10/01 08:16:46;;;;;;;9.75;6.35;;;;;;;16.96;69.66;99564.38;7554038;33;40132;-75
2022/10/01 08:21:03;;;;;;;9.38;6.22;;;;;;;16.92;69.48;99563.38;7554111;33;39980;-74
2022/10/01 08:25:19;;;;;;;10.88;6.28;;;;;;;16.75;70.11;99566.84;7554025;33;38080;-75
2022/10/01 08:29:35;;;;;;;9.85;6.35;;;;;;;16.89;70.06;99556.59;7554233;33;38343;-75
2022/10/01 08:33:51;;;;;;;11.23;7.00;;;;;;;17.19;69.02;99554.84;7553929;33;39225;-74
2022/10/01 08:38:08;;;;;;;13.38;8.10;;;;;;;17.13;69.52;99550.66;7553845;33;39613;-75
2022/10/01 08:43:01;;;;;;;12.30;7.97;;;;;;;17.18;69.90;99545.00;7553689;33;38625;-75
2022/10/01 08:47:33;;;;;;;13.48;8.65;;;;;;;16.89;71.21;99546.38;7553715;33;36147;-75
2022/10/01 08:52:02;;;;;;;15.27;8.23;;;;;;;17.32;70.06;99525.56;7552479;33;39046;-76
2022/10/01 08:56:30;;;;;;;14.48;8.77;;;;;;;17.45;70.19;99521.00;7552292;33;40722;-75
2022/10/01 09:00:48;;;;;;;13.05;8.35;;;;;;;17.51;70.19;99516.16;7551976;33;37873;-75
2022/10/01 09:05:18;;;;;;;14.38;8.70;;;;;;;17.72;69.84;99514.34;7553040;33;37207;-76
2022/10/01 09:09:46;;;;;;;14.07;8.90;;;;;;;17.81;69.69;99508.81;7552003;33;40232;-75
2022/10/01 09:14:32;;;;;;;15.20;8.43;;;;;;;18.11;69.61;99520.81;7551789;33;40038;-74
2022/10/01 09:18:54;;;;;;;13.25;8.75;;;;;;;18.33;69.19;99516.16;7552519;33;38783;-75
2022/10/01 09:23:23;;;;;;;13.40;8.20;;;;;;;18.66;68.98;99505.31;7552599;33;38144;-75
2022/10/01 09:27:39;;;;;;;15.10;8.90;;;;;;;18.84;67.78;99496.97;7551507;33;39357;-75
2022/10/01 09:31:55;;;;;;;12.02;7.37;;;;;;;19.27;68.00;99495.84;7552503;33;40534;-74
2022/10/01 09:36:32;;;;;;;13.18;7.32;;;;;;;19.72;66.42;99499.84;7551138;33;38077;-75
2022/10/01 09:40:53;;;;;;;10.00;6.35;;;;;;;20.31;65.97;99493.22;7551161;33;36981;-74
2022/10/01 09:45:14;;;;;;;11.98;6.45;;;;;;;20.53;65.16;99484.47;7552204;33;39227;-75
2022/10/01 09:49:34;;;;;;;10.02;6.10;;;;;;;20.77;64.54;99485.66;7550806;33;39924;-74
2022/10/01 09:54:12;;;;;;;9.30;5.85;;;;;;;20.73;63.67;99481.94;7550870;33;38010;-74
2022/10/01 09:58:29;;;;;;;9.77;6.05;;;;;;;21.43;63.00;99473.34;7555694;33;37145;-74
2022/10/01 10:02:50;;;;;;;8.07;5.00;;;;;;;21.42;61.48;99479.25;7542671;33;39405;-74
2022/10/01 10:07:07;;;;;;;8.32;4.65;;;;;;;21.19;60.57;99477.81;7555620;33;40851;-74
2022/10/01 10:11:32;;;;;;;9.18;4.82;;;;;;;21.24;59.63;99479.53;7554431;33;38005;-75
2022/10/01 10:15:51;;;;;;;7.60;5.07;;;;;;;20.95;60.24;99467.59;7555663;33;37134;-75
2022/10/01 10:20:19;;;;;;;10.63;6.05;;;;;;;20.82;62.13;99460.47;7555502;33;38412;-74
2022/10/01 10:24:36;;;;;;;9.00;5.90;;;;;;;20.77;62.95;99449.63;7554329;33;40869;-75
2022/10/01 10:28:52;;;;;;;9.60;5.70;;;;;;;21.20;62.65;99446.16;7555362;33;38058;-75
2022/10/01 10:33:13;;;;;;;9.05;6.00;;;;;;;21.53;62.08;99430.47;7555444;33;37039;-73
2022/10/01 10:37:33;;;;;;;9.50;5.62;;;;;;;21.45;62.21;99425.84;7554267;33;40086;-74
2022/10/01 10:41:50;;;;;;;9.35;5.20;;;;;;;21.87;61.88;99415.16;7554089;33;38320;-74
2022/10/01 10:46:08;;;;;;;8.63;4.53;;;;;;;21.68;60.89;99415.84;7554923;33;37910;-74
2022/10/01 10:50:30;;;;;;;9.07;4.68;;;;;;;21.34;62.10;99422.78;7565941;33;37289;-74
2022/10/01 10:54:53;;;;;;;7.12;4.68;;;;;;;21.04;61.21;99416.78;7555263;33;39343;-75
2022/10/01 10:59:11;;;;;;;8.88;3.97;;;;;;;21.19;60.21;99408.50;7555176;33;40186;-76
2022/10/01 11:03:29;;;;;;;9.20;5.57;;;;;;;20.85;62.07;99404.34;7553916;33;37977;-74
2022/10/01 11:07:48;;;;;;;10.85;5.72;;;;;;;20.70;63.14;99414.22;7574815;33;38004;-74
2022/10/01 11:12:34;;;;;;;13.55;6.70;;;;;;;20.33;64.56;99391.25;7571873;32;38381;-75
2022/10/01 11:17:23;;;;;;;8.32;5.25;;;;;;;20.81;62.22;99395.94;7567454;32;40063;-74
2022/10/01 11:21:49;;;;;;;11.45;5.37;;;;;;;20.76;61.59;99387.88;7580335;33;38003;-75
2022/10/01 11:26:40;;;;;;;11.73;4.75;;;;;;;20.35;62.41;99383.41;7579287;32;35462;-74
2022/10/01 11:31:35;;;;;;;15.48;9.27;;;;;;;19.71;64.15;99371.81;7554149;33;39322;-74
2022/10/01 11:36:28;;;;;;;21.58;12.75;;;;;;;19.83;64.60;99366.38;7559195;33;39825;-75
2022/10/01 11:40:53;;;;;;;14.93;9.23;;;;;;;20.27;63.03;99361.03;7546891;33;37966;-75
2022/10/01 11:45:20;;;;;;;15.45;7.72;;;;;;;19.99;64.62;99366.47;7560148;33;37242;-74
2022/10/01 11:49:49;;;;;;;15.25;9.50;;;;;;;19.79;64.84;99357.12;7574164;33;39440;-73
2022/10/01 11:54:10;;;;;;;17.50;10.48;;;;;;;19.88;64.73;99360.56;7577108;33;39702;-74
2022/10/01 11:59:01;;;;;;;15.95;10.48;;;;;;;19.59;64.79;99366.28;7584127;32;38032;-75
2022/10/01 12:03:20;;;;;;;20.37;11.88;;;;;;;19.59;64.82;99349.69;7531072;33;38147;-76
2022/10/01 12:07:39;;;;;;;17.30;10.98;;;;;;;19.64;64.60;99355.78;7580032;33;38377;-74
2022/10/01 12:12:08;;;;;;;22.40;11.45;;;;;;;19.67;64.51;99355.13;7578619;33;40152;-79
2022/10/01 12:16:37;;;;;;;19.33;12.50;;;;;;;19.75;65.56;99350.69;7590295;32;38062;-79
2022/10/01 12:20:56;;;;;;;25.67;17.23;;;;;;;19.87;64.78;99342.38;7556994;33;37747;-75
2022/10/01 12:25:13;;;;;;;26.87;19.12;;;;;;;19.70;65.33;99328.75;7552968;33;38283;-72
2022/10/01 12:30:05;;;;;;;22.10;13.93;;;;;;;19.73;65.73;99322.53;7553735;33;39954;-73
2022/10/01 12:34:35;;;;;;;20.15;12.15;;;;;;;19.34;65.73;99319.25;7557525;33;38538;-73
2022/10/01 12:39:06;;;;;;;23.40;13.98;;;;;;;19.63;65.74;99309.16;7551354;33;36816;-72
2022/10/01 12:43:49;;;;;;;19.50;14.10;;;;;;;19.82;65.57;99309.41;7560582;33;38412;-73
2022/10/01 12:48:20;;;;;;;25.00;15.88;;;;;;;19.50;66.13;99316.63;7578312;33;40047;-72
2022/10/01 12:53:17;;;;;;;22.50;15.52;;;;;;;19.25;66.81;99313.00;7566759;33;38123;-73
2022/10/01 12:57:51;;;;;;;28.52;18.20;;;;;;;19.19;66.23;99306.87;7522619;33;38009;-72
2022/10/01 13:02:33;;;;;;;27.62;17.00;;;;;;;18.61;67.83;99309.50;7527018;33;39396;-73
2022/10/01 13:07:21;;;;;;;26.77;17.92;;;;;;;18.77;67.45;99309.69;7550063;33;39972;-73
2022/10/01 13:12:01;;;;;;;25.37;16.75;;;;;;;18.39;68.74;99308.69;7551905;33;38799;-72
2022/10/01 13:16:43;;;;;;;29.23;18.92;;;;;;;17.63;71.92;99315.91;7558669;33;38100;-72
2022/10/01 13:21:25;;;;;;;32.22;19.58;;;;;;;17.95;70.63;99319.19;7526607;33;39023;-73
2022/10/01 13:26:00;;;;;;;36.67;22.13;;;;;;;17.94;70.10;99312.06;7547342;33;40877;-74
2022/10/01 13:30:23;;;;;;;27.40;17.62;;;;;;;18.08;69.83;99291.72;7552951;33;38843;-72
2022/10/01 13:34:45;;;;;;;31.50;17.15;;;;;;;18.25;69.68;99290.75;7568118;33;37272;-73
2022/10/01 13:39:01;;;;;;;32.75;19.05;;;;;;;18.24;69.70;99297.44;7569611;33;39630;-73
2022/10/01 13:43:23;;;;;;;25.92;15.27;;;;;;;17.79;71.36;99285.03;7580758;33;40687;-73
2022/10/01 13:47:40;;;;;;;25.17;13.05;;;;;;;18.32;69.89;99271.75;7590234;32;38010;-73
2022/10/01 13:51:57;;;;;;;19.52;12.70;;;;;;;18.02;69.84;99269.84;7574686;33;37468;-72
2022/10/01 13:56:27;;;;;;;21.98;13.30;;;;;;;17.61;71.81;99276.03;7554475;33;39472;-72
2022/10/01 14:00:52;;;;;;;21.67;11.07;;;;;;;17.75;71.05;99279.38;7577737;33;40014;-72
2022/10/01 14:05:42;;;;;;;20.25;11.10;;;;;;;18.02;69.85;99278.13;7579737;33;37907;-72
2022/10/01 14:09:59;;;;;;;20.67;10.73;;;;;;;16.92;73.25;99275.13;7564266;33;37209;-72
2022/10/01 14:18:58;;;;;;;20.67;10.27;;;;;;;17.02;72.94;99285.78;7580911;33;39981;-73
2022/10/01 14:23:20;;;;;;;18.02;10.27;;;;;;;16.79;73.82;99263.13;7580119;33;38056;-73
2022/10/01 14:27:39;;;;;;;18.85;10.85;;;;;;;17.52;71.40;99259.53;7591452;32;37275;-72
2022/10/01 14:32:35;;;;;;;17.12;9.43;;;;;;;17.25;72.05;99267.09;7579842;33;39093;-72
2022/10/01 14:36:53;;;;;;;14.90;9.45;;;;;;;17.33;71.78;99267.38;7588770;32;39595;-72
2022/10/01 14:41:22;;;;;;;14.35;8.32;;;;;;;17.51;71.30;99270.91;7591498;32;38688;-72
2022/10/01 14:45:59;;;;;;;23.52;8.48;;;;;;;17.03;72.45;99256.31;7580996;33;37429;-71
2022/10/01 14:50:19;;;;;;;14.87;7.57;;;;;;;16.36;75.10;99263.16;7580832;33;40470;-71
2022/10/01 14:54:57;;;;;;;18.05;7.50;;;;;;;16.74;72.99;99265.22;7579050;33;40569;-72
2022/10/01 14:59:31;;;;;;;13.40;7.00;;;;;;;16.89;72.44;99257.31;7529539;33;37816;-72
2022/10/01 15:03:48;;;;;;;13.65;6.90;;;;;;;16.87;72.28;99261.53;7529327;33;37165;-72
2022/10/01 15:08:23;;;;;;;12.45;6.87;;;;;;;16.55;72.91;99266.38;7529372;33;39277;-73
2022/10/01 15:12:40;;;;;;;13.70;6.00;;;;;;;16.96;71.76;99264.25;7529223;33;39984;-72
2022/10/01 15:17:00;;;;;;;11.02;4.90;;;;;;;16.63;72.21;99254.56;7542231;33;38645;-73
2022/10/01 15:21:39;;;;;;;9.93;4.85;;;;;;;16.72;71.22;99265.56;7554742;33;37863;-72
2022/10/01 15:25:56;;;;;;;9.40;4.40;;;;;;;16.42;72.34;99262.66;7578106;33;39563;-73
2022/10/01 15:30:17;;;;;;;8.30;4.28;;;;;;;16.56;71.75;99268.00;7591181;32;42463;-72
2022/10/01 15:34:34;;;;;;;12.73;4.28;;;;;;;16.36;71.75;99258.44;7560273;33;37884;-72
2022/10/01 15:38:50;;;;;;;10.13;3.97;;;;;;;16.34;71.76;99255.22;7551446;33;37241;-72
2022/10/01 15:43:27;;;;;;;8.82;4.10;;;;;;;16.43;71.08;99252.47;7559475;33;40097;-72
2022/10/01 15:47:51;;;;;;;12.02;3.75;;;;;;;16.79;70.08;99259.56;7578252;33;40506;-72
2022/10/01 15:56:48;;;;;;;32.28;19.98;;;;;;;17.03;69.06;99268.13;7589273;32;37826;-72
2022/10/01 16:01:16;;;;;;;11.02;5.70;;;;;;;17.00;69.04;99270.72;7565404;32;39344;-73
2022/10/01 16:05:44;;;;;;;9.30;4.80;;;;;;;17.43;67.06;99262.31;7565161;33;40961;-73
2022/10/01 16:10:26;;;;;;;8.00;4.10;;;;;;;17.00;68.17;99278.97;7553095;33;37893;-72
2022/10/01 16:15:03;;;;;;;9.18;4.85;;;;;;;16.94;68.50;99288.56;7554263;33;37129;-72
2022/10/01 16:19:30;;;;;;;10.38;6.50;;;;;;;16.89;68.68;99284.81;7573395;33;37737;-72
2022/10/01 16:23:51;;;;;;;12.60;6.75;;;;;;;16.76;69.26;99280.28;7562772;33;40043;-73
2022/10/01 16:28:23;;;;;;;12.82;7.97;;;;;;;16.58;69.89;99271.22;7553995;33;37959;-72
2022/10/01 16:32:39;;;;;;;15.02;9.10;;;;;;;16.39;71.24;99262.50;7559701;33;37616;-76
2022/10/01 16:36:56;;;;;;;13.35;8.73;;;;;;;16.42;70.68;99265.41;7560882;33;40010;-76
2022/10/01 16:41:17;;;;;;;14.87;8.85;;;;;;;17.01;68.65;99255.81;7553610;33;40810;-76
2022/10/01 16:45:37;;;;;;;15.25;9.18;;;;;;;16.67;69.67;99257.47;7558939;33;38163;-77
2022/10/01 16:49:53;;;;;;;15.65;9.35;;;;;;;16.47;69.89;99254.25;7564082;33;38042;-75
2022/10/01 16:54:25;;;;;;;16.73;8.38;;;;;;;16.37;70.75;99279.34;7549548;33;39156;-77
2022/10/01 16:58:44;;;;;;;15.23;8.90;;;;;;;16.41;69.99;99277.53;7563042;33;39984;-76
2022/10/01 17:03:01;;;;;;;13.20;7.82;;;;;;;16.09;71.43;99285.13;7552855;33;38741;-75
2022/10/01 17:07:17;;;;;;;14.35;8.73;;;;;;;15.96;71.51;99286.06;7576800;33;38003;-79
2022/10/01 17:11:34;;;;;;;14.02;8.45;;;;;;;16.21;69.57;99279.00;7581736;33;39044;-77
2022/10/01 17:15:51;;;;;;;13.05;8.18;;;;;;;15.93;70.49;99283.94;7581780;33;40825;-76
2022/10/01 17:20:10;;;;;;;13.82;8.15;;;;;;;15.96;70.76;99280.56;7592241;32;38474;-75
2022/10/01 17:24:26;;;;;;;17.25;8.70;;;;;;;15.83;70.33;99276.00;7581547;33;37193;-75
2022/10/01 17:28:42;;;;;;;13.70;8.30;;;;;;;15.71;70.52;99274.66;7581494;33;40322;-75
2022/10/01 17:32:59;;;;;;;13.07;8.25;;;;;;;15.64;70.47;99285.28;7581412;33;40008;-75
2022/10/01 17:37:15;;;;;;;13.68;8.70;;;;;;;15.73;70.42;99297.13;7580087;33;37585;-76
2022/10/01 17:41:32;;;;;;;14.00;9.27;;;;;;;15.79;70.73;99306.06;7581592;33;37690;-76
2022/10/01 17:45:55;;;;;;;16.98;9.15;;;;;;;15.68;71.30;99315.72;7581271;33;39439;-76
2022/10/01 17:50:13;;;;;;;16.00;9.75;;;;;;;15.79;70.99;99308.00;7581323;33;40062;-75
2022/10/01 17:54:29;;;;;;;16.70;9.93;;;;;;;15.72;71.59;99306.47;7581243;33;38168;-75
2022/10/01 17:58:46;;;;;;;24.30;10.82;;;;;;;15.53;72.18;99319.66;7581337;33;37106;-76
2022/10/01 18:03:03;;;;;;;15.73;10.20;;;;;;;15.57;72.20;99321.47;7581063;33;39360;-77
2022/10/01 18:07:19;;;;;;;16.65;10.38;;;;;;;15.51;72.88;99338.41;7591547;32;39614;-74
2022/10/01 18:11:37;;;;;;;17.30;10.70;;;;;;;15.31;73.73;99332.31;7574233;33;38447;-76
2022/10/01 18:16:13;;;;;;;16.75;11.23;;;;;;;15.43;73.49;99322.69;7554820;33;38198;-76
2022/10/01 18:20:38;;;;;;;17.75;10.90;;;;;;;15.37;73.67;99317.34;7555314;33;39480;-74
2022/10/01 18:24:56;;;;;;;17.05;11.35;;;;;;;15.35;73.49;99329.75;7580318;33;38719;-75
2022/10/01 18:29:31;;;;;;;16.20;10.57;;;;;;;15.06;74.75;99339.28;7591853;32;38820;-75
2022/10/01 18:33:52;;;;;;;21.10;11.50;;;;;;;15.57;72.76;99337.13;7580908;33;37182;-76
2022/10/01 18:38:28;;;;;;;18.67;12.63;;;;;;;15.35;73.73;99340.72;7555330;33;39206;-76
2022/10/01 18:43:11;;;;;;;19.40;13.02;;;;;;;15.69;72.59;99351.09;7555017;33;40067;-76
2022/10/01 18:48:06;;;;;;;19.80;13.68;;;;;;;15.49;73.27;99355.22;7567973;33;37640;-77
2022/10/01 18:52:28;;;;;;;23.10;13.48;;;;;;;15.22;74.42;99353.44;7563356;33;37149;-78
2022/10/01 18:56:59;;;;;;;24.30;14.68;;;;;;;15.29;74.12;99353.78;7580479;33;39310;-77
2022/10/01 19:01:34;;;;;;;25.33;15.80;;;;;;;14.78;76.60;99344.06;7580528;33;39984;-76
2022/10/01 19:06:08;;;;;;;28.87;15.90;;;;;;;15.20;74.90;99339.22;7576115;33;38777;-78
2022/10/01 19:10:37;;;;;;;26.58;16.92;;;;;;;14.88;75.79;99348.50;7553332;33;37961;-78
2022/10/01 19:15:12;;;;;;;29.02;16.55;;;;;;;15.33;74.56;99348.47;7579233;32;39452;-78
2022/10/01 19:19:53;;;;;;;30.35;16.27;;;;;;;15.40;74.16;99344.16;7589620;32;40898;-78
2022/10/01 19:24:27;;;;;;;25.60;16.92;;;;;;;15.21;74.75;99340.81;7575200;33;38026;-77
2022/10/01 19:29:01;;;;;;;25.98;16.77;;;;;;;15.29;73.76;99337.31;7553433;33;37030;-78
2022/10/01 19:33:19;;;;;;;26.27;16.37;;;;;;;15.45;72.93;99350.66;7554267;33;40120;-76
2022/10/01 19:37:42;;;;;;;25.08;15.90;;;;;;;14.69;75.45;99356.91;7554266;33;38936;-76
2022/10/01 19:42:25;;;;;;;27.00;16.65;;;;;;;15.07;74.42;99360.09;7554304;33;38768;-78
2022/10/01 19:46:46;;;;;;;25.55;16.67;;;;;;;15.25;73.35;99357.50;7574649;33;37133;-78
2022/10/01 19:51:11;;;;;;;22.92;15.20;;;;;;;15.17;73.75;99364.53;7590817;32;39510;-76
2022/10/01 19:55:31;;;;;;;23.45;15.07;;;;;;;15.54;71.68;99368.00;7579630;33;40077;-75
2022/10/01 20:00:03;;;;;;;28.33;15.75;;;;;;;15.18;73.05;99372.47;7579635;32;37920;-77
2022/10/01 20:04:23;;;;;;;24.87;16.50;;;;;;;15.49;71.69;99373.63;7575699;32;37396;-77
2022/10/01 20:09:09;;;;;;;25.65;15.65;;;;;;;15.36;72.20;99380.81;7564531;33;40210;-77
2022/10/01 20:13:50;;;;;;;24.58;16.30;;;;;;;15.44;71.87;99371.03;7538715;33;40441;-78
2022/10/01 20:18:20;;;;;;;28.87;16.52;;;;;;;15.38;71.85;99367.56;7577063;33;37917;-77
2022/10/01 20:23:18;;;;;;;24.67;16.42;;;;;;;15.40;71.83;99360.66;7579362;33;37242;-77
2022/10/01 20:27:55;;;;;;;25.17;16.40;;;;;;;15.37;71.59;99366.78;7579210;33;39207;-77
2022/10/01 20:32:35;;;;;;;25.00;16.40;;;;;;;15.55;70.84;99366.88;7572852;33;39891;-77